Terminal Aerodrome Forecast
Issued by NWS Louisville, KY

Home | Current Version | Previous Version | Text Only | Print | Product List | Glossary On
Versions: 1 2 3 4 5 6 7 8 9 10 11 12 13 14 15 16 17 18 19 20
000
FTUS43 KLMK 222100 AAB
TAFLEX
TAF AMD
KLEX 222155Z 2222/2318 04006KT P6SM BKN035
     FM222300 05004KT P6SM SKC
     FM231000 00000KT 4SM BR SKC
     FM231300 06004KT P6SM SCT250=

USA.gov is the U.S. government's official web portal to all federal, state and local government web resources and services.